sensor_id;sensor_type;location;lat;lon;timestamp;temperature;humidity
15072;DHT22;7635;56.696;13.002;2023-04-25T00:01:24;8.80;99.90
15072;DHT22;7635;56.696;13.002;2023-04-25T00:07:28;8.80;99.90
15072;DHT22;7635;56.696;13.002;2023-04-25T00:23:32;8.80;99.90
15072;DHT22;7635;56.696;13.002;2023-04-25T00:26:12;8.80;99.90
15072;DHT22;7635;56.696;13.002;2023-04-25T00:28:49;8.80;99.90
15072;DHT22;7635;56.696;13.002;2023-04-25T00:31:34;8.80;99.90
15072;DHT22;7635;56.696;13.002;2023-04-25T00:37:18;8.80;99.90
15072;DHT22;7635;56.696;13.002;2023-04-25T00:40:26;8.80;99.90
15072;DHT22;7635;56.696;13.002;2023-04-25T00:56:29;8.80;99.90
15072;DHT22;7635;56.696;13.002;2023-04-25T01:01:58;8.80;99.90
15072;DHT22;7635;56.696;13.002;2023-04-25T01:11:39;8.90;99.90
15072;DHT22;7635;56.696;13.002;2023-04-25T01:14:12;8.80;99.90
15072;DHT22;7635;56.696;13.002;2023-04-25T01:16:58;8.80;99.90
15072;DHT22;7635;56.696;13.002;2023-04-25T01:20:17;8.80;99.90
15072;DHT22;7635;56.696;13.002;2023-04-25T01:25:57;8.80;99.90
15072;DHT22;7635;56.696;13.002;2023-04-25T01:28:41;8.80;99.90
15072;DHT22;7635;56.696;13.002;2023-04-25T01:31:22;8.80;99.90
15072;DHT22;7635;56.696;13.002;2023-04-25T01:34:52;8.80;99.90
15072;DHT22;7635;56.696;13.002;2023-04-25T01:37:22;8.80;99.90
15072;DHT22;7635;56.696;13.002;2023-04-25T01:40:20;8.80;99.90
15072;DHT22;7635;56.696;13.002;2023-04-25T01:43:34;8.80;99.90
15072;DHT22;7635;56.696;13.002;2023-04-25T01:46:22;8.80;99.90
15072;DHT22;7635;56.696;13.002;2023-04-25T02:16:27;8.40;99.90
15072;DHT22;7635;56.696;13.002;2023-04-25T02:19:11;8.40;99.90
15072;DHT22;7635;56.696;13.002;2023-04-25T02:22:20;8.30;99.90
15072;DHT22;7635;56.696;13.002;2023-04-25T02:25:04;8.20;99.90
15072;DHT22;7635;56.696;13.002;2023-04-25T02:27:59;8.20;99.90
15072;DHT22;7635;56.696;13.002;2023-04-25T02:30:37;8.20;99.90
15072;DHT22;7635;56.696;13.002;2023-04-25T02:33:37;8.20;99.90
15072;DHT22;7635;56.696;13.002;2023-04-25T02:36:15;8.10;99.90
15072;DHT22;7635;56.696;13.002;2023-04-25T02:38:59;8.10;99.90
15072;DHT22;7635;56.696;13.002;2023-04-25T02:41:36;8.10;99.90
15072;DHT22;7635;56.696;13.002;2023-04-25T02:44:33;8.10;99.90
15072;DHT22;7635;56.696;13.002;2023-04-25T02:50:46;8.10;99.90
15072;DHT22;7635;56.696;13.002;2023-04-25T02:54:10;8.10;99.90
15072;DHT22;7635;56.696;13.002;2023-04-25T03:10:55;8.10;99.90
15072;DHT22;7635;56.696;13.002;2023-04-25T03:13:37;8.10;99.90
15072;DHT22;7635;56.696;13.002;2023-04-25T03:16:12;8.10;99.90
15072;DHT22;7635;56.696;13.002;2023-04-25T03:18:52;8.10;99.90
15072;DHT22;7635;56.696;13.002;2023-04-25T03:21:29;8.10;99.90
15072;DHT22;7635;56.696;13.002;2023-04-25T03:24:44;8.10;99.90
15072;DHT22;7635;56.696;13.002;2023-04-25T03:27:34;8.10;99.90
15072;DHT22;7635;56.696;13.002;2023-04-25T03:30:11;8.10;99.90
15072;DHT22;7635;56.696;13.002;2023-04-25T03:32:49;8.10;99.90
15072;DHT22;7635;56.696;13.002;2023-04-25T03:35:23;8.10;99.90
15072;DHT22;7635;56.696;13.002;2023-04-25T03:41:21;8.10;99.90
15072;DHT22;7635;56.696;13.002;2023-04-25T03:44:06;8.10;99.90
15072;DHT22;7635;56.696;13.002;2023-04-25T03:46:42;8.10;99.90
15072;DHT22;7635;56.696;13.002;2023-04-25T03:49:13;8.10;99.90
15072;DHT22;7635;56.696;13.002;2023-04-25T03:51:45;8.10;99.90
15072;DHT22;7635;56.696;13.002;2023-04-25T03:54:22;8.10;99.90
15072;DHT22;7635;56.696;13.002;2023-04-25T03:56:59;8.10;99.90
15072;DHT22;7635;56.696;13.002;2023-04-25T03:59:56;8.10;99.90
15072;DHT22;7635;56.696;13.002;2023-04-25T04:02:37;8.10;99.90
15072;DHT22;7635;56.696;13.002;2023-04-25T04:05:33;8.10;99.90
15072;DHT22;7635;56.696;13.002;2023-04-25T04:08:21;8.10;99.90
15072;DHT22;7635;56.696;13.002;2023-04-25T04:11:33;8.10;99.90
15072;DHT22;7635;56.696;13.002;2023-04-25T04:14:31;8.10;99.90
15072;DHT22;7635;56.696;13.002;2023-04-25T04:17:03;8.10;99.90
15072;DHT22;7635;56.696;13.002;2023-04-25T04:29:33;8.10;99.90
15072;DHT22;7635;56.696;13.002;2023-04-25T04:35:36;8.10;99.90
15072;DHT22;7635;56.696;13.002;2023-04-25T04:38:10;8.10;99.90
15072;DHT22;7635;56.696;13.002;2023-04-25T04:40:45;8.10;99.90
15072;DHT22;7635;56.696;13.002;2023-04-25T04:43:16;8.10;99.90
15072;DHT22;7635;56.696;13.002;2023-04-25T04:45:59;8.10;99.90
15072;DHT22;7635;56.696;13.002;2023-04-25T04:48:32;8.10;99.90
15072;DHT22;7635;56.696;13.002;2023-04-25T04:51:34;8.10;99.90
15072;DHT22;7635;56.696;13.002;2023-04-25T04:54:24;8.10;99.90
15072;DHT22;7635;56.696;13.002;2023-04-25T05:00:10;8.20;99.90
15072;DHT22;7635;56.696;13.002;2023-04-25T05:02:43;8.20;99.90
15072;DHT22;7635;56.696;13.002;2023-04-25T05:05:30;8.20;99.90
15072;DHT22;7635;56.696;13.002;2023-04-25T05:08:29;8.20;99.90
15072;DHT22;7635;56.696;13.002;2023-04-25T05:11:12;8.30;99.90
15072;DHT22;7635;56.696;13.002;2023-04-25T05:14:00;8.30;99.90
15072;DHT22;7635;56.696;13.002;2023-04-25T05:24:05;8.40;99.90
15072;DHT22;7635;56.696;13.002;2023-04-25T05:26:46;8.40;99.90
15072;DHT22;7635;56.696;13.002;2023-04-25T05:29:48;8.40;99.90
15072;DHT22;7635;56.696;13.002;2023-04-25T05:32:29;8.40;99.90
15072;DHT22;7635;56.696;13.002;2023-04-25T05:35:17;8.30;99.90
15072;DHT22;7635;56.696;13.002;2023-04-25T05:37:55;8.30;99.90
15072;DHT22;7635;56.696;13.002;2023-04-25T05:44:03;8.30;99.90
15072;DHT22;7635;56.696;13.002;2023-04-25T05:49:59;8.40;99.90
15072;DHT22;7635;56.696;13.002;2023-04-25T05:52:27;8.40;99.90
15072;DHT22;7635;56.696;13.002;2023-04-25T05:55:13;8.40;99.90
15072;DHT22;7635;56.696;13.002;2023-04-25T05:57:50;8.40;99.90
15072;DHT22;7635;56.696;13.002;2023-04-25T06:00:25;8.40;99.90
15072;DHT22;7635;56.696;13.002;2023-04-25T06:03:25;8.50;99.90
15072;DHT22;7635;56.696;13.002;2023-04-25T06:05:56;8.50;99.90
15072;DHT22;7635;56.696;13.002;2023-04-25T06:08:51;8.40;99.90
15072;DHT22;7635;56.696;13.002;2023-04-25T06:11:24;8.50;99.90
15072;DHT22;7635;56.696;13.002;2023-04-25T06:17:28;8.50;99.90
15072;DHT22;7635;56.696;13.002;2023-04-25T06:20:02;8.50;99.90
15072;DHT22;7635;56.696;13.002;2023-04-25T06:22:50;8.50;99.90
15072;DHT22;7635;56.696;13.002;2023-04-25T06:25:39;8.60;99.90
15072;DHT22;7635;56.696;13.002;2023-04-25T06:28:47;8.50;99.90
15072;DHT22;7635;56.696;13.002;2023-04-25T06:31:19;8.50;99.90
15072;DHT22;7635;56.696;13.002;2023-04-25T06:34:14;8.60;99.90
15072;DHT22;7635;56.696;13.002;2023-04-25T06:36:52;8.50;99.90
15072;DHT22;7635;56.696;13.002;2023-04-25T06:39:44;8.50;99.90
15072;DHT22;7635;56.696;13.002;2023-04-25T06:42:30;8.50;99.90
15072;DHT22;7635;56.696;13.002;2023-04-25T06:45:06;8.60;99.90
15072;DHT22;7635;56.696;13.002;2023-04-25T06:48:51;8.60;99.90
15072;DHT22;7635;56.696;13.002;2023-04-25T06:50:55;8.60;99.90
15072;DHT22;7635;56.696;13.002;2023-04-25T06:53:24;8.60;99.90
15072;DHT22;7635;56.696;13.002;2023-04-25T06:56:06;8.60;99.90
15072;DHT22;7635;56.696;13.002;2023-04-25T06:58:45;8.70;99.90
15072;DHT22;7635;56.696;13.002;2023-04-25T07:01:25;8.70;99.90
15072;DHT22;7635;56.696;13.002;2023-04-25T07:03:58;8.70;99.90
15072;DHT22;7635;56.696;13.002;2023-04-25T07:06:36;8.80;99.90
15072;DHT22;7635;56.696;13.002;2023-04-25T07:09:24;8.80;99.90
15072;DHT22;7635;56.696;13.002;2023-04-25T07:15:15;8.90;99.90
15072;DHT22;7635;56.696;13.002;2023-04-25T07:18:01;9.00;99.90
15072;DHT22;7635;56.696;13.002;2023-04-25T07:20:37;9.00;99.90
15072;DHT22;7635;56.696;13.002;2023-04-25T07:23:16;9.00;99.90
15072;DHT22;7635;56.696;13.002;2023-04-25T07:29:01;9.10;99.90
15072;DHT22;7635;56.696;13.002;2023-04-25T07:31:40;9.00;99.90
15072;DHT22;7635;56.696;13.002;2023-04-25T07:34:30;9.00;99.90
15072;DHT22;7635;56.696;13.002;2023-04-25T07:37:06;9.00;99.90
15072;DHT22;7635;56.696;13.002;2023-04-25T07:39:54;9.10;99.90
15072;DHT22;7635;56.696;13.002;2023-04-25T07:42:38;9.10;99.90
15072;DHT22;7635;56.696;13.002;2023-04-25T07:45:29;9.20;99.90
15072;DHT22;7635;56.696;13.002;2023-04-25T07:48:00;9.20;99.90
15072;DHT22;7635;56.696;13.002;2023-04-25T07:50:33;9.20;99.90
15072;DHT22;7635;56.696;13.002;2023-04-25T07:56:43;9.30;99.90
15072;DHT22;7635;56.696;13.002;2023-04-25T07:59:25;9.40;99.90
15072;DHT22;7635;56.696;13.002;2023-04-25T08:01:55;9.30;99.90
15072;DHT22;7635;56.696;13.002;2023-04-25T08:04:25;9.30;99.90
15072;DHT22;7635;56.696;13.002;2023-04-25T08:10:44;9.20;99.90
15072;DHT22;7635;56.696;13.002;2023-04-25T08:13:20;9.20;99.90
15072;DHT22;7635;56.696;13.002;2023-04-25T08:16:11;9.10;99.90
15072;DHT22;7635;56.696;13.002;2023-04-25T08:18:51;9.10;99.90
15072;DHT22;7635;56.696;13.002;2023-04-25T08:22:47;9.00;99.90
15072;DHT22;7635;56.696;13.002;2023-04-25T08:25:10;9.10;99.90
15072;DHT22;7635;56.696;13.002;2023-04-25T08:27:41;9.00;99.90
15072;DHT22;7635;56.696;13.002;2023-04-25T08:33:58;9.00;99.90
15072;DHT22;7635;56.696;13.002;2023-04-25T08:36:38;9.10;99.90
15072;DHT22;7635;56.696;13.002;2023-04-25T08:39:15;9.10;99.90
15072;DHT22;7635;56.696;13.002;2023-04-25T08:41:54;9.10;99.90
15072;DHT22;7635;56.696;13.002;2023-04-25T08:44:30;9.00;99.90
15072;DHT22;7635;56.696;13.002;2023-04-25T08:47:19;9.00;99.90
15072;DHT22;7635;56.696;13.002;2023-04-25T08:50:06;9.00;99.90
15072;DHT22;7635;56.696;13.002;2023-04-25T08:52:44;9.00;99.90
15072;DHT22;7635;56.696;13.002;2023-04-25T08:55:34;8.90;99.90
15072;DHT22;7635;56.696;13.002;2023-04-25T08:58:18;8.90;99.90
15072;DHT22;7635;56.696;13.002;2023-04-25T09:01:20;8.90;99.90
15072;DHT22;7635;56.696;13.002;2023-04-25T09:04:06;8.90;99.90
15072;DHT22;7635;56.696;13.002;2023-04-25T09:06:50;8.90;99.90
15072;DHT22;7635;56.696;13.002;2023-04-25T09:09:52;8.80;99.90
15072;DHT22;7635;56.696;13.002;2023-04-25T09:12:29;8.90;99.90
15072;DHT22;7635;56.696;13.002;2023-04-25T09:15:06;8.90;99.90
15072;DHT22;7635;56.696;13.002;2023-04-25T09:17:34;8.90;99.90
15072;DHT22;7635;56.696;13.002;2023-04-25T09:20:18;8.90;99.90
15072;DHT22;7635;56.696;13.002;2023-04-25T09:22:52;8.90;99.90
15072;DHT22;7635;56.696;13.002;2023-04-25T09:28:29;8.90;99.90
15072;DHT22;7635;56.696;13.002;2023-04-25T09:31:07;8.90;99.90
15072;DHT22;7635;56.696;13.002;2023-04-25T09:33:49;8.90;99.90
15072;DHT22;7635;56.696;13.002;2023-04-25T09:36:27;8.90;99.90
15072;DHT22;7635;56.696;13.002;2023-04-25T09:39:02;8.80;99.90
15072;DHT22;7635;56.696;13.002;2023-04-25T09:41:41;8.90;99.90
15072;DHT22;7635;56.696;13.002;2023-04-25T09:44:23;8.90;99.90
15072;DHT22;7635;56.696;13.002;2023-04-25T09:50:15;8.90;99.90
15072;DHT22;7635;56.696;13.002;2023-04-25T09:53:19;8.90;99.90
15072;DHT22;7635;56.696;13.002;2023-04-25T09:55:53;8.90;99.90
15072;DHT22;7635;56.696;13.002;2023-04-25T09:58:26;8.90;99.90
15072;DHT22;7635;56.696;13.002;2023-04-25T10:01:21;9.00;99.90
15072;DHT22;7635;56.696;13.002;2023-04-25T10:04:13;9.00;99.90
15072;DHT22;7635;56.696;13.002;2023-04-25T10:06:53;9.00;99.90
15072;DHT22;7635;56.696;13.002;2023-04-25T10:09:25;9.00;99.90
15072;DHT22;7635;56.696;13.002;2023-04-25T10:15:49;9.10;99.90
15072;DHT22;7635;56.696;13.002;2023-04-25T10:18:34;9.20;99.90
15072;DHT22;7635;56.696;13.002;2023-04-25T10:24:25;9.30;99.90
15072;DHT22;7635;56.696;13.002;2023-04-25T10:27:00;9.50;99.90
15072;DHT22;7635;56.696;13.002;2023-04-25T10:29:35;9.50;99.90
15072;DHT22;7635;56.696;13.002;2023-04-25T10:32:24;9.50;99.90
15072;DHT22;7635;56.696;13.002;2023-04-25T10:35:16;9.50;99.90
15072;DHT22;7635;56.696;13.002;2023-04-25T10:38:00;9.50;99.90
15072;DHT22;7635;56.696;13.002;2023-04-25T10:41:05;9.60;99.90
15072;DHT22;7635;56.696;13.002;2023-04-25T10:43:37;9.70;99.90
15072;DHT22;7635;56.696;13.002;2023-04-25T10:46:23;9.80;99.90
15072;DHT22;7635;56.696;13.002;2023-04-25T10:52:25;10.10;99.90
15072;DHT22;7635;56.696;13.002;2023-04-25T10:55:04;10.10;99.90
15072;DHT22;7635;56.696;13.002;2023-04-25T10:57:49;10.10;99.90
15072;DHT22;7635;56.696;13.002;2023-04-25T11:00:26;10.10;99.90
15072;DHT22;7635;56.696;13.002;2023-04-25T11:03:46;10.20;99.90
15072;DHT22;7635;56.696;13.002;2023-04-25T11:06:34;10.20;99.90
15072;DHT22;7635;56.696;13.002;2023-04-25T11:09:18;10.20;99.90
15072;DHT22;7635;56.696;13.002;2023-04-25T11:11:56;10.20;99.90
15072;DHT22;7635;56.696;13.002;2023-04-25T11:14:32;10.20;99.90
15072;DHT22;7635;56.696;13.002;2023-04-25T11:17:13;10.20;99.90
15072;DHT22;7635;56.696;13.002;2023-04-25T11:19:53;10.20;99.90
15072;DHT22;7635;56.696;13.002;2023-04-25T11:22:28;10.20;99.90
15072;DHT22;7635;56.696;13.002;2023-04-25T11:25:05;10.20;99.90
15072;DHT22;7635;56.696;13.002;2023-04-25T11:27:41;10.20;99.90
15072;DHT22;7635;56.696;13.002;2023-04-25T11:30:24;10.20;99.90
15072;DHT22;7635;56.696;13.002;2023-04-25T11:33:08;10.20;99.90
15072;DHT22;7635;56.696;13.002;2023-04-25T11:35:47;10.30;99.90
15072;DHT22;7635;56.696;13.002;2023-04-25T11:38:16;10.30;99.90
15072;DHT22;7635;56.696;13.002;2023-04-25T11:44:39;10.60;99.90
15072;DHT22;7635;56.696;13.002;2023-04-25T11:47:27;10.90;99.90
15072;DHT22;7635;56.696;13.002;2023-04-25T11:51:30;11.10;99.90
15072;DHT22;7635;56.696;13.002;2023-04-25T11:53:27;11.20;99.90
15072;DHT22;7635;56.696;13.002;2023-04-25T11:56:09;11.20;99.90
15072;DHT22;7635;56.696;13.002;2023-04-25T12:00:13;11.20;99.90
15072;DHT22;7635;56.696;13.002;2023-04-25T12:05:32;11.10;99.90
15072;DHT22;7635;56.696;13.002;2023-04-25T12:08:12;11.00;99.90
15072;DHT22;7635;56.696;13.002;2023-04-25T12:10:49;10.80;99.90
15072;DHT22;7635;56.696;13.002;2023-04-25T12:13:25;10.70;99.90
15072;DHT22;7635;56.696;13.002;2023-04-25T12:16:20;10.60;99.90
15072;DHT22;7635;56.696;13.002;2023-04-25T12:19:03;10.50;99.90
15072;DHT22;7635;56.696;13.002;2023-04-25T12:21:37;10.40;99.90
15072;DHT22;7635;56.696;13.002;2023-04-25T12:24:17;10.20;99.90
15072;DHT22;7635;56.696;13.002;2023-04-25T12:27:00;10.10;99.90
15072;DHT22;7635;56.696;13.002;2023-04-25T12:29:52;10.00;99.90
15072;DHT22;7635;56.696;13.002;2023-04-25T12:32:49;9.90;99.90
15072;DHT22;7635;56.696;13.002;2023-04-25T12:35:22;9.80;99.90
15072;DHT22;7635;56.696;13.002;2023-04-25T12:37:56;9.70;99.90
15072;DHT22;7635;56.696;13.002;2023-04-25T12:40:33;9.60;99.90
15072;DHT22;7635;56.696;13.002;2023-04-25T12:43:09;9.60;99.90
15072;DHT22;7635;56.696;13.002;2023-04-25T12:49:04;9.50;99.90
15072;DHT22;7635;56.696;13.002;2023-04-25T12:54:37;9.40;99.90
15072;DHT22;7635;56.696;13.002;2023-04-25T12:57:16;9.40;99.90
15072;DHT22;7635;56.696;13.002;2023-04-25T12:59:52;9.40;99.90
15072;DHT22;7635;56.696;13.002;2023-04-25T13:02:23;9.40;99.90
15072;DHT22;7635;56.696;13.002;2023-04-25T13:05:02;9.40;99.90
15072;DHT22;7635;56.696;13.002;2023-04-25T13:08:01;9.40;99.90
15072;DHT22;7635;56.696;13.002;2023-04-25T13:10:34;9.30;99.90
15072;DHT22;7635;56.696;13.002;2023-04-25T13:13:46;9.30;99.90
15072;DHT22;7635;56.696;13.002;2023-04-25T13:16:18;9.30;99.90
15072;DHT22;7635;56.696;13.002;2023-04-25T13:18:55;9.30;99.90
15072;DHT22;7635;56.696;13.002;2023-04-25T13:21:34;9.30;99.90
15072;DHT22;7635;56.696;13.002;2023-04-25T13:24:08;9.20;99.90
15072;DHT22;7635;56.696;13.002;2023-04-25T13:39:28;9.00;99.90
15072;DHT22;7635;56.696;13.002;2023-04-25T13:42:06;9.00;99.90
15072;DHT22;7635;56.696;13.002;2023-04-25T13:44:34;9.00;99.90
15072;DHT22;7635;56.696;13.002;2023-04-25T13:47:06;9.00;99.90
15072;DHT22;7635;56.696;13.002;2023-04-25T13:50:49;9.00;99.90
15072;DHT22;7635;56.696;13.002;2023-04-25T13:52:52;9.00;99.90
15072;DHT22;7635;56.696;13.002;2023-04-25T13:55:24;8.90;99.90
15072;DHT22;7635;56.696;13.002;2023-04-25T13:57:57;8.90;99.90
15072;DHT22;7635;56.696;13.002;2023-04-25T14:00:35;8.80;99.90
15072;DHT22;7635;56.696;13.002;2023-04-25T14:03:10;8.80;99.90
15072;DHT22;7635;56.696;13.002;2023-04-25T14:05:49;8.80;99.90
15072;DHT22;7635;56.696;13.002;2023-04-25T14:08:22;8.80;99.90
15072;DHT22;7635;56.696;13.002;2023-04-25T14:11:17;8.80;99.90
15072;DHT22;7635;56.696;13.002;2023-04-25T14:13:50;8.80;99.90
15072;DHT22;7635;56.696;13.002;2023-04-25T14:16:50;8.80;99.90
15072;DHT22;7635;56.696;13.002;2023-04-25T14:19:39;8.80;99.90
15072;DHT22;7635;56.696;13.002;2023-04-25T14:22:14;8.80;99.90
15072;DHT22;7635;56.696;13.002;2023-04-25T14:24:47;8.80;99.90
15072;DHT22;7635;56.696;13.002;2023-04-25T14:30:06;8.80;99.90
15072;DHT22;7635;56.696;13.002;2023-04-25T14:32:39;8.80;99.90
15072;DHT22;7635;56.696;13.002;2023-04-25T14:35:44;8.90;99.90
15072;DHT22;7635;56.696;13.002;2023-04-25T14:38:15;8.90;99.90
15072;DHT22;7635;56.696;13.002;2023-04-25T14:40:50;9.00;99.90
15072;DHT22;7635;56.696;13.002;2023-04-25T14:43:31;9.00;99.90
15072;DHT22;7635;56.696;13.002;2023-04-25T14:46:02;8.90;99.90
15072;DHT22;7635;56.696;13.002;2023-04-25T14:48:39;8.90;99.90
15072;DHT22;7635;56.696;13.002;2023-04-25T14:51:14;8.90;99.90
15072;DHT22;7635;56.696;13.002;2023-04-25T14:53:41;8.90;99.90
15072;DHT22;7635;56.696;13.002;2023-04-25T14:56:16;8.90;99.90
15072;DHT22;7635;56.696;13.002;2023-04-25T14:59:03;9.00;99.90
15072;DHT22;7635;56.696;13.002;2023-04-25T15:01:36;9.00;99.90
15072;DHT22;7635;56.696;13.002;2023-04-25T15:07:17;9.10;99.90
15072;DHT22;7635;56.696;13.002;2023-04-25T15:09:58;9.10;99.90
15072;DHT22;7635;56.696;13.002;2023-04-25T15:12:44;9.10;99.90
15072;DHT22;7635;56.696;13.002;2023-04-25T15:15:29;9.20;99.90
15072;DHT22;7635;56.696;13.002;2023-04-25T15:17:58;9.20;99.90
15072;DHT22;7635;56.696;13.002;2023-04-25T15:21:03;9.20;99.90
15072;DHT22;7635;56.696;13.002;2023-04-25T15:23:30;9.20;99.90
15072;DHT22;7635;56.696;13.002;2023-04-25T15:26:23;9.20;99.90
15072;DHT22;7635;56.696;13.002;2023-04-25T15:28:56;9.20;99.90
15072;DHT22;7635;56.696;13.002;2023-04-25T15:31:48;9.20;99.90
15072;DHT22;7635;56.696;13.002;2023-04-25T15:34:19;9.20;99.90
15072;DHT22;7635;56.696;13.002;2023-04-25T15:37:03;9.20;99.90
15072;DHT22;7635;56.696;13.002;2023-04-25T15:39:37;9.20;99.90
15072;DHT22;7635;56.696;13.002;2023-04-25T15:42:10;9.10;99.90
15072;DHT22;7635;56.696;13.002;2023-04-25T15:44:43;9.10;99.90
15072;DHT22;7635;56.696;13.002;2023-04-25T15:47:16;9.10;99.90
15072;DHT22;7635;56.696;13.002;2023-04-25T15:50:15;9.10;99.90
15072;DHT22;7635;56.696;13.002;2023-04-25T15:52:55;9.10;99.90
15072;DHT22;7635;56.696;13.002;2023-04-25T15:55:51;9.10;99.90
15072;DHT22;7635;56.696;13.002;2023-04-25T15:58:35;9.10;99.90
15072;DHT22;7635;56.696;13.002;2023-04-25T16:01:10;9.10;99.90
15072;DHT22;7635;56.696;13.002;2023-04-25T16:03:43;9.10;99.90
15072;DHT22;7635;56.696;13.002;2023-04-25T16:06:20;9.20;99.90
15072;DHT22;7635;56.696;13.002;2023-04-25T16:08:56;9.10;99.90
15072;DHT22;7635;56.696;13.002;2023-04-25T16:11:25;9.20;99.90
15072;DHT22;7635;56.696;13.002;2023-04-25T16:14:14;9.20;99.90
15072;DHT22;7635;56.696;13.002;2023-04-25T16:16:42;9.20;99.90
15072;DHT22;7635;56.696;13.002;2023-04-25T16:22:42;9.20;99.90
15072;DHT22;7635;56.696;13.002;2023-04-25T16:25:27;9.20;99.90
15072;DHT22;7635;56.696;13.002;2023-04-25T16:28:14;9.20;99.90
15072;DHT22;7635;56.696;13.002;2023-04-25T16:31:03;9.20;99.90
15072;DHT22;7635;56.696;13.002;2023-04-25T16:33:44;9.20;99.90
15072;DHT22;7635;56.696;13.002;2023-04-25T16:36:31;9.20;99.90
15072;DHT22;7635;56.696;13.002;2023-04-25T16:39:04;9.20;99.90
15072;DHT22;7635;56.696;13.002;2023-04-25T16:45:08;9.30;99.90
15072;DHT22;7635;56.696;13.002;2023-04-25T16:47:41;9.30;99.90
15072;DHT22;7635;56.696;13.002;2023-04-25T16:50:18;9.30;99.90
15072;DHT22;7635;56.696;13.002;2023-04-25T16:52:50;9.30;99.90
15072;DHT22;7635;56.696;13.002;2023-04-25T16:55:24;9.30;99.90
15072;DHT22;7635;56.696;13.002;2023-04-25T16:57:54;9.30;99.90
15072;DHT22;7635;56.696;13.002;2023-04-25T17:00:24;9.30;99.90
15072;DHT22;7635;56.696;13.002;2023-04-25T17:02:56;9.30;99.90
15072;DHT22;7635;56.696;13.002;2023-04-25T17:05:29;9.30;99.90
15072;DHT22;7635;56.696;13.002;2023-04-25T17:08:04;9.40;99.90
15072;DHT22;7635;56.696;13.002;2023-04-25T17:10:35;9.40;99.90
15072;DHT22;7635;56.696;13.002;2023-04-25T17:13:07;9.50;99.90
15072;DHT22;7635;56.696;13.002;2023-04-25T17:15:38;9.50;99.90
15072;DHT22;7635;56.696;13.002;2023-04-25T17:22:06;9.40;99.90
15072;DHT22;7635;56.696;13.002;2023-04-25T17:24:44;9.40;99.90
15072;DHT22;7635;56.696;13.002;2023-04-25T17:27:17;9.30;99.90
15072;DHT22;7635;56.696;13.002;2023-04-25T17:29:53;9.30;99.90
15072;DHT22;7635;56.696;13.002;2023-04-25T17:32:24;9.20;99.90
15072;DHT22;7635;56.696;13.002;2023-04-25T17:34:56;9.20;99.90
15072;DHT22;7635;56.696;13.002;2023-04-25T17:37:27;9.10;99.90
15072;DHT22;7635;56.696;13.002;2023-04-25T17:40:00;9.10;99.90
15072;DHT22;7635;56.696;13.002;2023-04-25T17:45:56;9.00;99.90
15072;DHT22;7635;56.696;13.002;2023-04-25T17:48:25;8.90;99.90
15072;DHT22;7635;56.696;13.002;2023-04-25T17:50:53;8.80;99.90
15072;DHT22;7635;56.696;13.002;2023-04-25T17:53:31;8.70;99.90
15072;DHT22;7635;56.696;13.002;2023-04-25T17:56:01;8.70;99.90
15072;DHT22;7635;56.696;13.002;2023-04-25T17:59:04;8.70;99.90
15072;DHT22;7635;56.696;13.002;2023-04-25T18:01:32;8.70;99.90
15072;DHT22;7635;56.696;13.002;2023-04-25T18:04:06;8.70;99.90
15072;DHT22;7635;56.696;13.002;2023-04-25T18:06:37;8.70;99.90
15072;DHT22;7635;56.696;13.002;2023-04-25T18:09:14;8.70;99.90
15072;DHT22;7635;56.696;13.002;2023-04-25T18:11:51;8.70;99.90
15072;DHT22;7635;56.696;13.002;2023-04-25T18:14:20;8.70;99.90
15072;DHT22;7635;56.696;13.002;2023-04-25T18:17:01;8.70;99.90
15072;DHT22;7635;56.696;13.002;2023-04-25T18:19:45;8.70;99.90
15072;DHT22;7635;56.696;13.002;2023-04-25T18:22:16;8.70;99.90
15072;DHT22;7635;56.696;13.002;2023-04-25T18:24:48;8.70;99.90
15072;DHT22;7635;56.696;13.002;2023-04-25T18:27:34;8.60;99.90
15072;DHT22;7635;56.696;13.002;2023-04-25T18:30:04;8.40;99.90
15072;DHT22;7635;56.696;13.002;2023-04-25T18:32:37;8.30;99.90
15072;DHT22;7635;56.696;13.002;2023-04-25T18:35:05;8.20;99.90
15072;DHT22;7635;56.696;13.002;2023-04-25T18:37:45;8.20;99.90
15072;DHT22;7635;56.696;13.002;2023-04-25T18:40:23;8.10;99.90
15072;DHT22;7635;56.696;13.002;2023-04-25T18:42:59;8.10;99.90
15072;DHT22;7635;56.696;13.002;2023-04-25T18:45:30;8.10;99.90
15072;DHT22;7635;56.696;13.002;2023-04-25T18:48:05;8.10;99.90
15072;DHT22;7635;56.696;13.002;2023-04-25T18:50:38;8.10;99.90
15072;DHT22;7635;56.696;13.002;2023-04-25T18:53:12;8.10;99.90
15072;DHT22;7635;56.696;13.002;2023-04-25T18:55:50;8.10;99.90
15072;DHT22;7635;56.696;13.002;2023-04-25T18:58:26;8.10;99.90
15072;DHT22;7635;56.696;13.002;2023-04-25T19:00:56;8.10;99.90
15072;DHT22;7635;56.696;13.002;2023-04-25T19:03:26;8.10;99.90
15072;DHT22;7635;56.696;13.002;2023-04-25T19:06:01;8.00;99.90
15072;DHT22;7635;56.696;13.002;2023-04-25T19:08:34;8.00;99.90
15072;DHT22;7635;56.696;13.002;2023-04-25T19:11:11;8.00;99.90
15072;DHT22;7635;56.696;13.002;2023-04-25T19:13:53;8.00;99.90
15072;DHT22;7635;56.696;13.002;2023-04-25T19:19:47;7.90;99.90
15072;DHT22;7635;56.696;13.002;2023-04-25T19:32:48;7.90;99.90
15072;DHT22;7635;56.696;13.002;2023-04-25T19:35:26;7.90;99.90
15072;DHT22;7635;56.696;13.002;2023-04-25T19:38:04;7.90;99.90
15072;DHT22;7635;56.696;13.002;2023-04-25T19:40:49;7.90;99.90
15072;DHT22;7635;56.696;13.002;2023-04-25T19:43:42;7.90;99.90
15072;DHT22;7635;56.696;13.002;2023-04-25T19:46:41;7.80;99.90
15072;DHT22;7635;56.696;13.002;2023-04-25T19:49:19;7.80;99.90
15072;DHT22;7635;56.696;13.002;2023-04-25T19:52:00;7.80;99.90
15072;DHT22;7635;56.696;13.002;2023-04-25T19:54:39;7.80;99.90
15072;DHT22;7635;56.696;13.002;2023-04-25T19:57:14;7.80;99.90
15072;DHT22;7635;56.696;13.002;2023-04-25T20:03:08;7.70;99.90
15072;DHT22;7635;56.696;13.002;2023-04-25T20:05:42;7.70;99.90
15072;DHT22;7635;56.696;13.002;2023-04-25T20:08:37;7.60;99.90
15072;DHT22;7635;56.696;13.002;2023-04-25T20:11:17;7.60;99.90
15072;DHT22;7635;56.696;13.002;2023-04-25T20:13:53;7.60;99.90
15072;DHT22;7635;56.696;13.002;2023-04-25T20:16:26;7.50;99.90
15072;DHT22;7635;56.696;13.002;2023-04-25T20:19:13;7.50;99.90
15072;DHT22;7635;56.696;13.002;2023-04-25T20:21:50;7.50;99.90
15072;DHT22;7635;56.696;13.002;2023-04-25T20:24:51;7.40;99.90
15072;DHT22;7635;56.696;13.002;2023-04-25T20:27:36;7.40;99.90
15072;DHT22;7635;56.696;13.002;2023-04-25T20:30:11;7.40;99.90
15072;DHT22;7635;56.696;13.002;2023-04-25T20:32:45;7.40;99.90
15072;DHT22;7635;56.696;13.002;2023-04-25T20:35:29;7.40;99.90
15072;DHT22;7635;56.696;13.002;2023-04-25T20:38:02;7.40;99.90
15072;DHT22;7635;56.696;13.002;2023-04-25T20:40:48;7.40;99.90
15072;DHT22;7635;56.696;13.002;2023-04-25T20:43:24;7.40;99.90
15072;DHT22;7635;56.696;13.002;2023-04-25T20:46:07;7.40;99.90
15072;DHT22;7635;56.696;13.002;2023-04-25T20:48:46;7.40;99.90
15072;DHT22;7635;56.696;13.002;2023-04-25T20:51:21;7.40;99.90
15072;DHT22;7635;56.696;13.002;2023-04-25T20:54:01;7.30;99.90
15072;DHT22;7635;56.696;13.002;2023-04-25T20:56:37;7.30;99.90
15072;DHT22;7635;56.696;13.002;2023-04-25T20:59:10;7.30;99.90